createdAt,value
2022-12-14T00:01:30.826Z,4.34
2022-12-14T00:03:58.613Z,4.31
2022-12-14T00:06:27.268Z,4.31
2022-12-14T00:08:57.462Z,4.26
2022-12-14T00:11:25.240Z,4.30
2022-12-14T00:13:53.328Z,4.29
2022-12-14T00:16:21.099Z,4.35
2022-12-14T00:18:51.022Z,4.28
2022-12-14T00:21:18.678Z,4.39
2022-12-14T00:23:46.563Z,4.41
2022-12-14T00:26:16.651Z,4.42
2022-12-14T00:28:44.668Z,4.47
2022-12-14T00:31:12.482Z,4.42
2022-12-14T00:33:40.267Z,4.45
2022-12-14T00:36:09.357Z,4.39
2022-12-14T00:38:37.373Z,4.41
2022-12-14T00:41:05.148Z,4.45
2022-12-14T00:43:34.233Z,4.48
2022-12-14T00:46:01.993Z,4.48
2022-12-14T00:48:31.599Z,4.37
2022-12-14T00:50:59.647Z,4.51
2022-12-14T00:53:27.569Z,4.41
2022-12-14T00:55:55.489Z,4.50
2022-12-14T00:58:24.971Z,4.41
2022-12-14T01:01:01.197Z,4.49
2022-12-14T01:03:29.555Z,4.17
2022-12-14T01:05:57.826Z,3.91
2022-12-14T01:08:25.858Z,2.40
2022-12-14T01:10:53.871Z,1.87
2022-12-14T01:13:21.800Z,4.13
2022-12-14T01:15:49.686Z,1.95
2022-12-14T01:18:19.407Z,2.56
2022-12-14T01:20:47.327Z,4.58
2022-12-14T01:23:15.888Z,2.54
2022-12-14T01:25:43.692Z,4.64
2022-12-14T01:28:11.523Z,3.95
2022-12-14T01:30:40.513Z,2.52
2022-12-14T01:33:08.534Z,2.49
2022-12-14T01:35:37.740Z,4.58
2022-12-14T01:38:05.575Z,4.75
2022-12-14T01:40:33.497Z,4.73
2022-12-14T01:43:01.605Z,3.38
2022-12-14T01:45:30.091Z,3.90
2022-12-14T01:47:58.710Z,4.05
2022-12-14T01:50:29.478Z,2.48
2022-12-14T01:52:59.817Z,3.89
2022-12-14T01:55:28.683Z,2.74
2022-12-14T01:57:59.279Z,3.51
2022-12-14T02:00:27.132Z,3.74
2022-12-14T02:02:57.695Z,4.15
2022-12-14T02:05:25.755Z,1.80
2022-12-14T02:07:54.383Z,3.81
2022-12-14T02:10:23.924Z,3.14
2022-12-14T02:12:53.843Z,4.49
2022-12-14T02:15:21.876Z,3.47
2022-12-14T02:17:49.734Z,3.67
2022-12-14T02:20:17.727Z,2.65
2022-12-14T02:23:28.328Z,2.61
2022-12-14T02:26:14.780Z,3.52
2022-12-14T02:29:16.205Z,4.22
2022-12-14T02:31:48.935Z,4.02
2022-12-14T02:34:19.625Z,0.67
2022-12-14T02:36:51.862Z,0.93
2022-12-14T02:39:23.344Z,2.52
2022-12-14T02:42:01.426Z,3.24
2022-12-14T02:44:39.984Z,1.33
2022-12-14T02:47:10.961Z,3.41
2022-12-14T02:49:48.971Z,2.96
2022-12-14T02:52:21.368Z,1.65
2022-12-14T02:54:51.341Z,1.93
2022-12-14T02:57:21.672Z,2.07
2022-12-14T02:59:50.036Z,3.20
2022-12-14T03:02:19.545Z,2.04
2022-12-14T03:04:48.710Z,1.45
2022-12-14T03:07:31.324Z,2.69
2022-12-14T03:10:00.171Z,4.20
2022-12-14T03:12:27.897Z,3.73
2022-12-14T03:14:55.715Z,3.15
2022-12-14T03:17:25.809Z,3.92
2022-12-14T03:19:54.708Z,4.15
2022-12-14T03:22:24.214Z,2.46
2022-12-14T03:24:56.339Z,3.46
2022-12-14T03:27:25.517Z,2.92
2022-12-14T03:29:55.301Z,2.50
2022-12-14T03:32:25.450Z,3.93
2022-12-14T03:34:55.948Z,2.22
2022-12-14T03:37:25.764Z,2.40
2022-12-14T03:39:53.614Z,4.00
2022-12-14T03:42:22.693Z,4.14
2022-12-14T03:44:53.535Z,2.18
2022-12-14T03:47:32.589Z,2.63
2022-12-14T03:50:01.373Z,1.79
2022-12-14T03:52:32.261Z,4.13
2022-12-14T03:55:04.584Z,3.26
2022-12-14T03:57:42.211Z,3.70
2022-12-14T04:00:11.433Z,2.93
2022-12-14T04:02:42.616Z,3.29
2022-12-14T04:05:12.415Z,3.81
2022-12-14T04:07:42.638Z,3.77
2022-12-14T04:10:26.917Z,4.40
2022-12-14T04:13:13.316Z,3.30
2022-12-14T04:15:58.382Z,2.75
2022-12-14T04:18:48.537Z,3.85
2022-12-14T04:21:17.605Z,4.38
2022-12-14T04:24:04.937Z,4.51
2022-12-14T04:26:34.066Z,4.28
2022-12-14T04:29:21.045Z,3.56
2022-12-14T04:31:50.363Z,4.56
2022-12-14T04:34:20.108Z,3.84
2022-12-14T04:36:50.082Z,4.58
2022-12-14T04:39:19.748Z,3.85
2022-12-14T04:41:50.137Z,4.57
2022-12-14T04:44:20.848Z,1.75
2022-12-14T04:46:48.842Z,3.88
2022-12-14T04:49:21.055Z,4.41
2022-12-14T04:51:50.897Z,2.20
2022-12-14T04:54:20.879Z,3.78
2022-12-14T04:56:51.992Z,2.82
2022-12-14T04:59:19.784Z,3.70
2022-12-14T05:01:50.535Z,3.59
2022-12-14T05:04:25.517Z,3.44
2022-12-14T05:06:59.231Z,4.56
2022-12-14T05:09:28.621Z,3.85
2022-12-14T05:12:01.351Z,2.53
2022-12-14T05:14:33.018Z,2.56
2022-12-14T05:17:06.496Z,3.76
2022-12-14T05:19:37.828Z,3.90
2022-12-14T05:22:07.517Z,3.80
2022-12-14T05:24:35.429Z,3.79
2022-12-14T05:27:03.279Z,2.49
2022-12-14T05:29:31.303Z,4.28
2022-12-14T05:31:59.211Z,4.63
2022-12-14T05:34:26.962Z,3.06
2022-12-14T05:36:56.277Z,2.78
2022-12-14T05:39:24.025Z,2.80
2022-12-14T05:41:53.302Z,3.36
2022-12-14T05:44:21.205Z,3.69
2022-12-14T05:46:49.333Z,3.86
2022-12-14T05:49:17.366Z,3.33
2022-12-14T05:51:45.245Z,3.87
2022-12-14T05:54:14.888Z,4.51
2022-12-14T05:56:42.660Z,2.13
2022-12-14T05:59:15.651Z,2.96
2022-12-14T06:01:43.744Z,4.58
2022-12-14T06:04:12.344Z,3.50
2022-12-14T06:06:40.121Z,4.52
2022-12-14T06:09:08.195Z,2.71
2022-12-14T06:11:39.676Z,1.93
2022-12-14T06:14:08.027Z,3.00
2022-12-14T06:16:36.080Z,2.71
2022-12-14T06:19:05.473Z,3.13
2022-12-14T06:21:35.452Z,2.11
2022-12-14T06:24:03.447Z,1.77
2022-12-14T06:26:32.032Z,3.83
2022-12-14T06:29:01.781Z,3.08
2022-12-14T06:31:30.697Z,4.57
2022-12-14T06:33:59.248Z,4.59
2022-12-14T06:36:27.922Z,2.46
2022-12-14T06:38:56.109Z,2.99
2022-12-14T06:41:24.201Z,4.24
2022-12-14T06:43:53.811Z,3.29
2022-12-14T06:46:23.690Z,4.25
2022-12-14T06:48:51.795Z,4.67
2022-12-14T06:51:19.876Z,2.96
2022-12-14T06:53:47.712Z,2.97
2022-12-14T06:56:17.353Z,3.44
2022-12-14T06:58:45.292Z,2.92
2022-12-14T07:01:14.344Z,3.44
2022-12-14T07:03:44.125Z,3.57
2022-12-14T07:06:12.950Z,2.96
2022-12-14T07:08:40.896Z,3.25
2022-12-14T07:11:09.958Z,1.56
2022-12-14T07:13:37.885Z,3.48
2022-12-14T07:16:06.201Z,1.98
2022-12-14T07:18:34.350Z,3.32
2022-12-14T07:21:04.291Z,3.69
2022-12-14T07:23:33.600Z,3.37
2022-12-14T07:26:04.809Z,3.39
2022-12-14T07:28:32.688Z,3.24
2022-12-14T07:31:00.844Z,4.15
2022-12-14T07:33:29.421Z,3.92
2022-12-14T07:36:04.602Z,2.76
2022-12-14T07:38:32.472Z,4.47
2022-12-14T07:41:04.778Z,3.28
2022-12-14T07:43:32.479Z,4.70
2022-12-14T07:46:01.826Z,3.39
2022-12-14T07:48:29.716Z,4.01
2022-12-14T07:51:04.577Z,4.39
2022-12-14T07:53:32.477Z,3.56
2022-12-14T07:56:03.537Z,2.55
2022-12-14T07:58:34.492Z,4.78
2022-12-14T08:01:12.608Z,4.77
2022-12-14T08:03:41.019Z,4.81
2022-12-14T08:06:10.534Z,4.83
2022-12-14T08:08:38.632Z,2.90
2022-12-14T08:11:07.103Z,4.81
2022-12-14T08:13:35.148Z,4.10
2022-12-14T08:16:04.169Z,4.32
2022-12-14T08:18:33.356Z,3.14
2022-12-14T08:21:01.164Z,3.30
2022-12-14T08:23:30.949Z,2.84
2022-12-14T08:25:59.976Z,4.89
2022-12-14T08:28:28.119Z,4.20
2022-12-14T08:30:55.999Z,3.85
2022-12-14T08:33:23.887Z,4.30
2022-12-14T08:35:51.861Z,3.19
2022-12-14T08:38:19.717Z,4.84
2022-12-14T08:40:49.076Z,3.64
2022-12-14T08:43:20.329Z,4.90
2022-12-14T08:45:51.324Z,4.92
2022-12-14T08:48:19.232Z,4.95
2022-12-14T08:50:49.825Z,4.99
2022-12-14T08:53:18.775Z,4.41
2022-12-14T08:55:48.079Z,2.95
2022-12-14T08:58:16.184Z,4.16
2022-12-14T09:00:44.249Z,5.21
2022-12-14T09:03:13.293Z,4.12
2022-12-14T09:05:41.105Z,4.53
2022-12-14T09:08:09.335Z,4.57
2022-12-14T09:10:37.865Z,4.58
2022-12-14T09:13:07.350Z,4.62
2022-12-14T09:15:36.039Z,5.40
2022-12-14T09:18:05.438Z,5.45
2022-12-14T09:20:33.325Z,3.42
2022-12-14T09:23:08.870Z,4.27
2022-12-14T09:25:37.230Z,4.75
2022-12-14T09:28:06.885Z,3.07
2022-12-14T09:30:35.242Z,5.45
2022-12-14T09:33:03.511Z,5.37
2022-12-14T09:35:32.181Z,3.13
2022-12-14T09:38:01.655Z,4.25
2022-12-14T09:40:29.882Z,4.08
2022-12-14T09:43:01.640Z,5.22
2022-12-14T09:45:34.963Z,3.70
2022-12-14T09:48:07.450Z,2.67
2022-12-14T09:50:35.414Z,5.21
2022-12-14T09:53:03.505Z,5.19
2022-12-14T09:55:34.317Z,5.24
2022-12-14T09:58:05.715Z,5.05
2022-12-14T10:00:36.883Z,5.04
2022-12-14T10:03:29.616Z,5.27
2022-12-14T10:06:10.752Z,5.41
2022-12-14T10:08:40.603Z,5.46
2022-12-14T10:11:11.446Z,5.46
2022-12-14T10:13:45.853Z,5.47
2022-12-14T10:16:22.380Z,5.46
2022-12-14T10:19:00.061Z,5.38
2022-12-14T10:21:29.254Z,5.25
2022-12-14T10:23:58.739Z,5.49
2022-12-14T10:26:28.599Z,5.41
2022-12-14T10:29:01.458Z,5.52
2022-12-14T10:31:34.478Z,5.67
2022-12-14T10:34:12.235Z,5.81
2022-12-14T10:36:43.464Z,5.67
2022-12-14T10:39:22.923Z,5.59
2022-12-14T10:41:53.835Z,5.95
2022-12-14T10:44:35.075Z,5.81
2022-12-14T10:47:06.994Z,5.86
2022-12-14T10:49:37.700Z,5.68
2022-12-14T10:52:06.961Z,5.77
2022-12-14T10:54:37.310Z,5.75
2022-12-14T10:57:05.300Z,5.76
2022-12-14T10:59:40.672Z,5.73
2022-12-14T11:02:16.957Z,5.72
2022-12-14T11:04:50.689Z,5.61
2022-12-14T11:07:19.885Z,5.55
2022-12-14T11:09:47.619Z,5.59
2022-12-14T11:12:21.361Z,5.42
2022-12-14T11:14:54.036Z,5.42
2022-12-14T11:17:37.153Z,5.51
2022-12-14T11:20:16.950Z,5.50
2022-12-14T11:22:45.829Z,5.47
2022-12-14T11:25:37.140Z,5.53
2022-12-14T11:28:07.275Z,5.50
2022-12-14T11:30:35.058Z,5.51
2022-12-14T11:33:04.328Z,5.58
2022-12-14T11:35:32.076Z,5.56
2022-12-14T11:38:00.155Z,5.56
2022-12-14T11:40:28.594Z,5.66
2022-12-14T11:43:02.480Z,5.40
2022-12-14T11:45:31.399Z,5.53
2022-12-14T11:48:21.115Z,5.75
2022-12-14T11:50:49.614Z,5.68
2022-12-14T11:53:18.256Z,5.66
2022-12-14T11:55:47.142Z,5.65
2022-12-14T11:58:23.511Z,5.74
2022-12-14T12:00:52.418Z,5.76
2022-12-14T12:03:33.634Z,5.74
2022-12-14T12:06:02.558Z,5.84
2022-12-14T12:08:31.851Z,5.50
2022-12-14T12:11:03.254Z,5.49
2022-12-14T12:13:32.249Z,6.04
2022-12-14T12:16:00.866Z,6.09
2022-12-14T12:18:33.629Z,6.08
2022-12-14T12:21:04.326Z,6.02
2022-12-14T12:23:33.841Z,6.15
2022-12-14T12:26:01.801Z,6.18
2022-12-14T12:28:32.270Z,6.16
2022-12-14T12:31:06.001Z,5.86
2022-12-14T12:33:41.778Z,6.11
2022-12-14T12:36:09.962Z,6.29
2022-12-14T12:38:42.439Z,6.25
2022-12-14T12:41:25.518Z,6.37
2022-12-14T12:43:54.678Z,6.45
2022-12-14T12:46:24.261Z,6.49
2022-12-14T12:48:54.752Z,6.53
2022-12-14T12:51:24.084Z,6.35
2022-12-14T12:53:53.701Z,6.53
2022-12-14T12:56:22.509Z,6.60
2022-12-14T12:58:52.846Z,6.39
2022-12-14T13:01:24.141Z,6.66
2022-12-14T13:03:54.693Z,6.67
2022-12-14T13:06:24.554Z,6.43
2022-12-14T13:08:55.968Z,6.68
2022-12-14T13:11:26.746Z,6.65
2022-12-14T13:13:57.677Z,6.63
2022-12-14T13:16:28.091Z,6.64
2022-12-14T13:19:19.111Z,6.64
2022-12-14T13:21:50.452Z,6.67
2022-12-14T13:24:19.165Z,6.67
2022-12-14T13:27:06.242Z,6.67
2022-12-14T13:32:10.882Z,6.13
2022-12-14T13:34:45.393Z,6.51
2022-12-14T13:37:42.541Z,6.43
2022-12-14T13:40:51.141Z,6.47
2022-12-14T13:43:27.524Z,6.36
2022-12-14T13:45:55.168Z,6.38
2022-12-14T13:48:24.375Z,6.32
2022-12-14T13:51:01.553Z,6.30
2022-12-14T13:53:30.841Z,6.31
2022-12-14T13:55:59.076Z,6.29
2022-12-14T13:58:33.839Z,6.24
2022-12-14T14:01:02.778Z,6.16
2022-12-14T14:03:48.052Z,6.07
2022-12-14T14:06:22.466Z,6.08
2022-12-14T14:08:51.358Z,5.98
2022-12-14T14:12:01.856Z,5.94
2022-12-14T14:14:37.744Z,5.83
2022-12-14T14:17:09.637Z,5.71
2022-12-14T14:19:40.444Z,5.53
2022-12-14T14:22:23.868Z,5.62
2022-12-14T14:24:55.518Z,5.50
2022-12-14T14:27:23.949Z,5.53
2022-12-14T14:29:51.791Z,5.45
2022-12-14T14:32:36.375Z,5.30
2022-12-14T14:35:04.468Z,5.41
2022-12-14T14:37:34.937Z,5.36
2022-12-14T14:40:50.981Z,5.34
2022-12-14T14:43:21.750Z,5.27
2022-12-14T14:45:50.261Z,5.18
2022-12-14T14:48:24.660Z,4.93
2022-12-14T14:51:03.602Z,5.01
2022-12-14T14:53:33.085Z,5.14
2022-12-14T14:56:06.227Z,5.10
2022-12-14T14:58:35.632Z,5.02
2022-12-14T15:01:20.461Z,4.88
2022-12-14T15:03:55.410Z,4.96
2022-12-14T15:06:34.035Z,4.70
2022-12-14T15:09:06.725Z,4.82
2022-12-14T15:11:42.261Z,4.78
2022-12-14T15:14:27.710Z,4.76
2022-12-14T15:16:55.478Z,4.64
2022-12-14T15:19:24.795Z,4.52
2022-12-14T15:21:54.008Z,4.61
2022-12-14T15:24:24.128Z,4.49
2022-12-14T15:26:51.811Z,4.52
2022-12-14T15:29:37.916Z,4.48
2022-12-14T15:32:05.986Z,4.40
2022-12-14T15:34:33.825Z,4.38
2022-12-14T15:37:01.679Z,4.35
2022-12-14T15:39:40.209Z,4.29
2022-12-14T15:42:13.138Z,4.07
2022-12-14T15:44:43.860Z,4.22
2022-12-14T15:47:25.472Z,4.19
2022-12-14T15:49:59.211Z,4.13
2022-12-14T15:52:30.257Z,4.09
2022-12-14T15:55:00.737Z,3.99
2022-12-14T15:57:28.434Z,3.99
2022-12-14T15:59:57.482Z,3.91
2022-12-14T16:02:26.560Z,3.66
2022-12-14T16:04:54.650Z,3.87
2022-12-14T16:07:23.695Z,3.49
2022-12-14T16:09:52.618Z,3.71
2022-12-14T16:12:22.855Z,3.70
2022-12-14T16:14:54.111Z,3.72
2022-12-14T16:17:23.134Z,3.67
2022-12-14T16:20:00.735Z,3.34
2022-12-14T16:22:29.863Z,3.62
2022-12-14T16:25:19.276Z,3.43
2022-12-14T16:27:49.837Z,3.25
2022-12-14T16:30:28.920Z,3.10
2022-12-14T16:33:07.699Z,3.45
2022-12-14T16:35:37.409Z,3.41
2022-12-14T16:38:09.529Z,3.36
2022-12-14T16:40:38.238Z,3.31
2022-12-14T16:43:08.168Z,3.21
2022-12-14T16:46:06.543Z,3.22
2022-12-14T16:48:35.887Z,3.27
2022-12-14T16:51:50.854Z,3.24
2022-12-14T16:54:26.438Z,3.18
2022-12-14T16:57:00.608Z,3.14
2022-12-14T16:59:32.213Z,3.09
2022-12-14T17:02:00.504Z,2.96
2022-12-14T17:04:34.059Z,3.08
2022-12-14T17:07:02.178Z,3.08
2022-12-14T17:09:30.885Z,3.07
2022-12-14T17:12:00.092Z,3.05
2022-12-14T17:14:30.019Z,3.02
2022-12-14T17:17:00.188Z,2.94
2022-12-14T17:19:30.317Z,2.79
2022-12-14T17:21:58.486Z,2.97
2022-12-14T17:24:26.526Z,2.94
2022-12-14T17:26:54.639Z,2.91
2022-12-14T17:29:23.541Z,2.84
2022-12-14T17:31:53.588Z,2.80
2022-12-14T17:34:21.520Z,2.81
2022-12-14T17:36:49.656Z,2.77
2022-12-14T17:39:17.616Z,2.74
2022-12-14T17:41:46.417Z,2.72
2022-12-14T17:44:15.402Z,2.59
2022-12-14T17:46:43.700Z,2.69
2022-12-14T17:49:14.321Z,2.66
2022-12-14T17:51:43.624Z,2.66
2022-12-14T17:54:15.436Z,2.61
2022-12-14T17:56:43.556Z,2.48
2022-12-14T17:59:11.701Z,2.52
2022-12-14T18:01:53.153Z,2.57
2022-12-14T18:04:22.677Z,2.52
2022-12-14T18:06:51.593Z,2.54
2022-12-14T18:09:19.610Z,2.54
2022-12-14T18:12:22.139Z,2.47
2022-12-14T18:14:44.104Z,2.51
2022-12-14T18:17:12.229Z,2.49
2022-12-14T18:19:41.574Z,1.78
2022-12-14T18:22:14.040Z,2.38
2022-12-14T18:24:42.233Z,2.32
2022-12-14T18:27:10.138Z,2.35
2022-12-14T18:29:38.889Z,2.38
2022-12-14T18:32:06.732Z,2.01
2022-12-14T18:34:34.518Z,2.36
2022-12-14T18:37:04.804Z,2.32
2022-12-14T18:39:32.555Z,2.27
2022-12-14T18:42:00.649Z,2.33
2022-12-14T18:44:28.539Z,2.32
2022-12-14T18:46:59.743Z,2.33
2022-12-14T18:49:33.524Z,2.13
2022-12-14T18:52:01.508Z,2.23
2022-12-14T18:54:30.996Z,2.18
2022-12-14T18:57:02.026Z,2.15
2022-12-14T18:59:29.915Z,2.14
2022-12-14T19:01:58.027Z,2.12
2022-12-14T19:04:25.976Z,2.11
2022-12-14T19:06:54.772Z,2.08
2022-12-14T19:09:23.331Z,1.87
2022-12-14T19:11:53.620Z,1.62
2022-12-14T19:14:21.580Z,2.03
2022-12-14T19:16:49.679Z,2.04
2022-12-14T19:19:22.427Z,2.03
2022-12-14T19:21:52.161Z,1.98
2022-12-14T19:24:20.128Z,1.92
2022-12-14T19:26:49.510Z,1.95
2022-12-14T19:29:19.038Z,1.95
2022-12-14T19:31:49.493Z,1.95
2022-12-14T19:34:21.107Z,1.93
2022-12-14T19:36:48.904Z,1.91
2022-12-14T19:39:16.736Z,1.89
2022-12-14T19:41:54.210Z,1.88
2022-12-14T19:46:53.104Z,1.84
2022-12-14T19:49:22.276Z,1.79
2022-12-14T19:51:50.261Z,1.79
2022-12-14T19:54:18.026Z,1.79
2022-12-14T19:56:45.950Z,1.78
2022-12-14T19:59:17.444Z,1.77
2022-12-14T20:01:48.113Z,1.75
2022-12-14T20:04:17.852Z,1.75
2022-12-14T20:06:45.658Z,1.74
2022-12-14T20:09:15.195Z,1.60
2022-12-14T20:11:43.283Z,1.43
2022-12-14T20:14:12.484Z,1.60
2022-12-14T20:16:40.364Z,1.53
2022-12-14T20:19:08.367Z,1.65
2022-12-14T20:21:53.765Z,1.63
2022-12-14T20:24:21.482Z,1.60
2022-12-14T20:26:50.601Z,1.58
2022-12-14T20:29:18.318Z,1.59
2022-12-14T20:31:46.192Z,1.58
2022-12-14T20:34:13.923Z,1.40
2022-12-14T20:36:41.888Z,1.55
2022-12-14T20:39:11.124Z,1.47
2022-12-14T20:41:39.051Z,1.51
2022-12-14T20:44:08.707Z,1.49
2022-12-14T20:46:37.619Z,1.46
2022-12-14T20:49:06.470Z,1.27
2022-12-14T20:51:35.202Z,1.32
2022-12-14T20:54:04.167Z,1.43
2022-12-14T20:56:34.043Z,1.42
2022-12-14T20:59:01.905Z,1.41
2022-12-14T21:01:29.911Z,1.40
2022-12-14T21:04:00.543Z,1.34
2022-12-14T21:06:28.315Z,1.38
2022-12-14T21:09:11.843Z,1.36
2022-12-14T21:11:59.911Z,1.33
2022-12-14T21:14:28.878Z,1.33
2022-12-14T21:16:59.262Z,1.31
2022-12-14T21:19:27.071Z,1.30
2022-12-14T21:21:54.974Z,1.26
2022-12-14T21:25:00.427Z,1.21
2022-12-14T21:27:15.872Z,1.21
2022-12-14T21:29:44.006Z,1.16
2022-12-14T21:32:11.946Z,1.20
2022-12-14T21:34:40.284Z,1.16
2022-12-14T21:37:08.162Z,1.10
2022-12-14T21:39:35.888Z,0.98
2022-12-14T21:42:13.080Z,1.13
2022-12-14T21:44:43.272Z,1.03
2022-12-14T21:47:12.290Z,1.06
2022-12-14T21:49:40.360Z,1.05
2022-12-14T21:52:08.094Z,1.03
2022-12-14T21:54:36.904Z,0.65
2022-12-14T21:57:21.926Z,1.00
2022-12-14T21:59:51.088Z,0.95
2022-12-14T22:02:20.297Z,0.87
2022-12-14T22:04:48.565Z,0.79
2022-12-14T22:07:16.415Z,0.92
2022-12-14T22:09:44.595Z,0.92
2022-12-14T22:12:17.833Z,0.77
2022-12-14T22:14:45.841Z,0.90
2022-12-14T22:17:15.098Z,0.88
2022-12-14T22:19:43.059Z,0.88
2022-12-14T22:22:13.939Z,0.84
2022-12-14T22:24:41.906Z,0.80
2022-12-14T22:27:10.127Z,0.81
2022-12-14T22:29:39.013Z,0.61
2022-12-14T22:32:07.130Z,0.79
2022-12-14T22:34:37.871Z,0.77
2022-12-14T22:37:06.453Z,0.71
2022-12-14T22:39:34.317Z,0.62
2022-12-14T22:42:02.127Z,0.72
2022-12-14T22:44:29.943Z,0.70
2022-12-14T22:46:57.722Z,0.70
2022-12-14T22:49:25.623Z,0.63
2022-12-14T22:51:54.734Z,0.63
2022-12-14T22:54:24.255Z,0.64
2022-12-14T22:56:53.572Z,0.64
2022-12-14T22:59:23.139Z,0.35
2022-12-14T23:01:50.902Z,0.61
2022-12-14T23:04:18.941Z,0.57
2022-12-14T23:06:48.322Z,0.51
2022-12-14T23:09:35.063Z,0.53
2022-12-14T23:12:22.089Z,0.46
2022-12-14T23:15:07.315Z,0.48
2022-12-14T23:17:52.855Z,0.44
2022-12-14T23:20:38.228Z,0.37
2022-12-14T23:23:24.428Z,0.41
2022-12-14T23:26:12.815Z,0.34
2022-12-14T23:28:57.963Z,0.30
2022-12-14T23:31:43.360Z,0.31
2022-12-14T23:34:28.427Z,0.30
2022-12-14T23:37:19.742Z,0.29
2022-12-14T23:40:05.736Z,0.25
2022-12-14T23:42:53.540Z,0.02
2022-12-14T23:45:38.864Z,0.20
2022-12-14T23:48:24.304Z,0.22
2022-12-14T23:51:09.656Z,0.15
2022-12-14T23:53:54.740Z,0.25
2022-12-14T23:56:40.297Z,0.23
2022-12-14T23:59:32.067Z,0.30
